createdAt,value
2024-05-09T00:00:57.254Z,17.95
2024-05-09T00:02:59.983Z,17.93
2024-05-09T00:05:01.720Z,17.92
2024-05-09T00:07:03.524Z,17.92
2024-05-09T00:09:05.084Z,17.89
2024-05-09T00:11:06.871Z,17.88
2024-05-09T00:13:10.199Z,17.87
2024-05-09T00:15:12.396Z,17.85
2024-05-09T00:17:14.205Z,17.82
2024-05-09T00:19:15.940Z,17.82
2024-05-09T00:21:17.734Z,17.81
2024-05-09T00:23:19.395Z,17.78
2024-05-09T00:25:21.030Z,17.77
2024-05-09T00:27:22.759Z,17.74
2024-05-09T00:29:24.498Z,17.73
2024-05-09T00:31:26.725Z,17.72
2024-05-09T00:33:28.722Z,17.70
2024-05-09T00:35:30.699Z,17.70
2024-05-09T00:37:32.475Z,17.68
2024-05-09T00:39:34.106Z,17.67
2024-05-09T00:41:35.798Z,17.65
2024-05-09T00:43:37.430Z,17.64
2024-05-09T00:45:39.060Z,17.63
2024-05-09T00:47:42.945Z,17.60
2024-05-09T00:49:44.819Z,17.59
2024-05-09T00:51:46.677Z,17.57
2024-05-09T00:53:49.177Z,17.56
2024-05-09T00:55:52.676Z,17.56
2024-05-09T00:57:54.726Z,17.53
2024-05-09T00:59:56.778Z,17.53
2024-05-09T01:01:59.644Z,17.52
2024-05-09T01:04:01.748Z,17.51
2024-05-09T01:06:03.517Z,17.50
2024-05-09T01:08:05.947Z,17.49
2024-05-09T01:10:13.959Z,17.47
2024-05-09T01:12:19.206Z,17.46
2024-05-09T01:14:25.368Z,17.43
2024-05-09T01:16:27.076Z,17.42
2024-05-09T01:18:28.875Z,17.39
2024-05-09T01:20:39.801Z,17.37
2024-05-09T01:22:44.734Z,17.36
2024-05-09T01:24:46.357Z,17.35
2024-05-09T01:26:48.307Z,17.33
2024-05-09T01:28:49.899Z,17.33
2024-05-09T01:30:51.499Z,17.32
2024-05-09T01:32:53.414Z,17.33
2024-05-09T01:34:59.663Z,17.30
2024-05-09T01:37:01.347Z,17.30
2024-05-09T01:39:02.931Z,17.27
2024-05-09T01:41:04.807Z,17.25
2024-05-09T01:43:07.630Z,17.25
2024-05-09T01:45:09.805Z,17.23
2024-05-09T01:47:11.507Z,17.21
2024-05-09T01:49:13.310Z,17.19
2024-05-09T01:51:15.021Z,17.17
2024-05-09T01:53:16.712Z,17.15
2024-05-09T01:55:18.317Z,17.13
2024-05-09T01:57:19.994Z,17.11
2024-05-09T01:59:21.713Z,17.09
2024-05-09T02:01:24.021Z,17.10
2024-05-09T02:03:27.948Z,17.10
2024-05-09T02:05:30.094Z,17.07
2024-05-09T02:07:31.711Z,17.06
2024-05-09T02:09:37.680Z,17.05
2024-05-09T02:11:47.727Z,17.03
2024-05-09T02:13:49.415Z,17.01
2024-05-09T02:15:52.563Z,17.00
2024-05-09T02:17:54.504Z,16.98
2024-05-09T02:19:56.255Z,16.96
2024-05-09T02:21:57.823Z,16.94
2024-05-09T02:24:00.113Z,16.93
2024-05-09T02:26:01.737Z,16.90
2024-05-09T02:28:03.413Z,16.91
2024-05-09T02:30:12.227Z,16.90
2024-05-09T02:32:20.160Z,16.86
2024-05-09T02:34:21.938Z,16.85
2024-05-09T02:36:23.568Z,16.84
2024-05-09T02:38:25.193Z,16.83
2024-05-09T02:40:35.563Z,16.80
2024-05-09T02:42:39.703Z,16.79
2024-05-09T02:44:41.265Z,16.77
2024-05-09T02:46:42.827Z,16.76
2024-05-09T02:48:44.459Z,16.76
2024-05-09T02:50:46.203Z,16.75
2024-05-09T02:52:47.896Z,16.73
2024-05-09T02:54:49.500Z,16.72
2024-05-09T02:56:51.246Z,16.70
2024-05-09T02:58:52.964Z,16.69
2024-05-09T03:00:54.726Z,16.69
2024-05-09T03:02:56.538Z,16.68
2024-05-09T03:04:58.915Z,16.67
2024-05-09T03:07:00.539Z,16.67
2024-05-09T03:09:04.796Z,16.63
2024-05-09T03:11:06.639Z,16.64
2024-05-09T03:13:14.119Z,16.62
2024-05-09T03:15:18.375Z,16.60
2024-05-09T03:17:20.143Z,16.60
2024-05-09T03:19:22.078Z,16.60
2024-05-09T03:21:23.733Z,16.58
2024-05-09T03:23:25.361Z,16.58
2024-05-09T03:25:26.988Z,16.56
2024-05-09T03:27:28.641Z,16.55
2024-05-09T03:29:30.484Z,16.55
2024-05-09T03:31:32.173Z,16.55
2024-05-09T03:33:34.088Z,16.52
2024-05-09T03:35:35.875Z,16.52
2024-05-09T03:37:37.491Z,16.52
2024-05-09T03:39:39.193Z,16.51
2024-05-09T03:41:40.850Z,16.49
2024-05-09T03:43:43.926Z,16.49
2024-05-09T03:45:48.106Z,16.48
2024-05-09T03:47:49.859Z,16.48
2024-05-09T03:49:51.556Z,16.47
2024-05-09T03:51:53.138Z,16.46
2024-05-09T03:53:55.108Z,16.44
2024-05-09T03:55:57.315Z,16.44
2024-05-09T03:57:59.265Z,16.42
2024-05-09T04:00:00.930Z,16.42
2024-05-09T04:02:06.522Z,16.42
2024-05-09T04:04:09.160Z,16.42
2024-05-09T04:06:12.045Z,16.42
2024-05-09T04:08:15.369Z,16.42
2024-05-09T04:10:24.242Z,16.42
2024-05-09T04:12:32.650Z,16.41
2024-05-09T04:14:34.388Z,16.40
2024-05-09T04:16:36.058Z,16.40
2024-05-09T04:18:38.088Z,16.38
2024-05-09T04:20:41.142Z,16.38
2024-05-09T04:22:43.218Z,16.36
2024-05-09T04:24:45.272Z,16.35
2024-05-09T04:26:46.853Z,16.33
2024-05-09T04:28:48.483Z,16.32
2024-05-09T04:30:50.641Z,16.30
2024-05-09T04:32:52.440Z,16.30
2024-05-09T04:34:54.065Z,16.29
2024-05-09T04:36:55.658Z,16.28
2024-05-09T04:38:57.241Z,16.28
2024-05-09T04:40:59.845Z,16.27
2024-05-09T04:43:01.595Z,16.27
2024-05-09T04:45:03.359Z,16.25
2024-05-09T04:47:05.081Z,16.23
2024-05-09T04:49:06.791Z,16.22
2024-05-09T04:51:08.500Z,16.21
2024-05-09T04:53:14.855Z,16.21
2024-05-09T04:55:16.885Z,16.20
2024-05-09T04:57:18.437Z,16.20
2024-05-09T04:59:20.104Z,16.19
2024-05-09T05:01:21.798Z,16.18
2024-05-09T05:03:23.543Z,16.18
2024-05-09T05:05:25.234Z,16.18
2024-05-09T05:07:26.820Z,16.18
2024-05-09T05:09:28.501Z,16.16
2024-05-09T05:11:30.172Z,16.14
2024-05-09T05:13:32.526Z,16.15
2024-05-09T05:15:34.107Z,16.13
2024-05-09T05:17:36.438Z,16.14
2024-05-09T05:19:38.470Z,16.16
2024-05-09T05:21:40.164Z,16.18
2024-05-09T05:23:41.910Z,16.20
2024-05-09T05:25:44.082Z,16.23
2024-05-09T05:27:45.714Z,16.25
2024-05-09T05:29:50.128Z,16.28
2024-05-09T05:31:51.791Z,16.32
2024-05-09T05:33:53.599Z,16.33
2024-05-09T05:35:55.954Z,16.35
2024-05-09T05:37:57.571Z,16.37
2024-05-09T05:39:59.290Z,16.38
2024-05-09T05:42:02.426Z,16.39
2024-05-09T05:44:04.117Z,16.39
2024-05-09T05:46:05.735Z,16.41
2024-05-09T05:48:08.051Z,16.43
2024-05-09T05:50:20.409Z,16.46
2024-05-09T05:52:28.470Z,16.48
2024-05-09T05:54:30.039Z,16.50
2024-05-09T05:56:31.705Z,16.54
2024-05-09T05:58:33.343Z,16.55
2024-05-09T06:00:38.551Z,16.56
2024-05-09T06:02:42.028Z,16.58
2024-05-09T06:04:43.815Z,16.58
2024-05-09T06:06:45.500Z,16.61
2024-05-09T06:08:47.143Z,16.61
2024-05-09T06:10:48.889Z,16.61
2024-05-09T06:12:50.535Z,16.63
2024-05-09T06:14:52.210Z,16.64
2024-05-09T06:16:57.703Z,16.66
2024-05-09T06:18:59.905Z,16.68
2024-05-09T06:21:01.676Z,16.69
2024-05-09T06:23:03.594Z,16.71
2024-05-09T06:25:05.633Z,16.73
2024-05-09T06:27:07.334Z,16.75
2024-05-09T06:29:12.439Z,16.78
2024-05-09T06:31:14.076Z,16.83
2024-05-09T06:33:16.726Z,16.86
2024-05-09T06:35:20.422Z,16.90
2024-05-09T06:37:22.026Z,16.95
2024-05-09T06:39:24.146Z,17.02
2024-05-09T06:41:25.768Z,17.08
2024-05-09T06:43:27.429Z,17.17
2024-05-09T06:45:28.998Z,17.26
2024-05-09T06:47:30.837Z,17.37
2024-05-09T06:49:32.916Z,17.47
2024-05-09T06:51:38.394Z,17.57
2024-05-09T06:53:40.724Z,17.70
2024-05-09T06:55:43.105Z,17.83
2024-05-09T06:57:44.697Z,17.96
2024-05-09T06:59:46.300Z,18.09
2024-05-09T07:01:48.173Z,18.18
2024-05-09T07:03:50.163Z,18.28
2024-05-09T07:05:51.892Z,18.40
2024-05-09T07:07:53.600Z,18.50
2024-05-09T07:09:55.293Z,18.60
2024-05-09T07:11:57.046Z,18.68
2024-05-09T07:13:58.714Z,18.77
2024-05-09T07:16:00.373Z,18.86
2024-05-09T07:18:17.768Z,18.94
2024-05-09T07:20:31.632Z,19.01
2024-05-09T07:22:36.316Z,19.11
2024-05-09T07:24:44.890Z,19.20
2024-05-09T07:27:06.966Z,19.29
2024-05-09T07:29:28.984Z,19.39
2024-05-09T07:31:37.413Z,19.48
2024-05-09T07:33:39.294Z,19.56
2024-05-09T07:35:40.936Z,19.66
2024-05-09T07:37:42.546Z,19.76
2024-05-09T07:39:44.264Z,19.86
2024-05-09T07:41:46.038Z,19.94
2024-05-09T07:43:48.816Z,20.06
2024-05-09T07:45:54.102Z,20.16
2024-05-09T07:49:44.327Z,20.28
2024-05-09T07:53:30.555Z,20.51
2024-05-09T07:54:45.514Z,20.62
2024-05-09T07:56:47.314Z,20.74
2024-05-09T07:59:01.882Z,20.83
2024-05-09T08:01:23.951Z,20.94
2024-05-09T08:03:32.328Z,21.04
2024-05-09T08:05:38.956Z,21.12
2024-05-09T08:07:40.696Z,21.24
2024-05-09T08:09:42.304Z,21.33
2024-05-09T08:11:44.887Z,21.44
2024-05-09T08:13:46.782Z,21.57
2024-05-09T08:15:48.394Z,21.66
2024-05-09T08:17:50.173Z,21.77
2024-05-09T08:19:51.945Z,21.88
2024-05-09T08:21:53.651Z,21.99
2024-05-09T08:23:55.717Z,22.09
2024-05-09T08:26:00.806Z,22.20
2024-05-09T08:28:04.772Z,22.32
2024-05-09T08:30:10.184Z,22.44
2024-05-09T08:32:14.336Z,22.55
2024-05-09T08:34:18.527Z,22.64
2024-05-09T08:36:20.197Z,22.77
2024-05-09T08:38:21.845Z,22.89
2024-05-09T08:40:30.761Z,22.99
2024-05-09T08:42:38.212Z,23.10
2024-05-09T08:44:39.958Z,23.19
2024-05-09T08:46:42.375Z,23.30
2024-05-09T08:48:46.579Z,23.41
2024-05-09T08:50:52.077Z,23.50
2024-05-09T08:52:53.743Z,23.61
2024-05-09T08:54:55.377Z,23.70
2024-05-09T08:56:57.450Z,23.82
2024-05-09T08:59:01.695Z,23.93
2024-05-09T09:01:07.407Z,24.02
2024-05-09T09:03:11.390Z,24.15
2024-05-09T09:05:17.138Z,24.26
2024-05-09T09:07:22.407Z,24.37
2024-05-09T09:09:26.722Z,24.46
2024-05-09T09:11:28.467Z,24.57
2024-05-09T09:13:30.123Z,24.68
2024-05-09T09:15:31.864Z,24.75
2024-05-09T09:17:33.745Z,24.83
2024-05-09T09:19:40.232Z,24.91
2024-05-09T09:21:42.589Z,24.97
2024-05-09T09:23:44.250Z,24.97
2024-05-09T09:25:48.965Z,24.97
2024-05-09T09:27:50.865Z,24.94
2024-05-09T09:29:52.547Z,24.91
2024-05-09T09:32:08.562Z,24.84
2024-05-09T09:34:10.673Z,24.81
2024-05-09T09:36:14.351Z,24.82
2024-05-09T09:38:21.575Z,24.84
2024-05-09T09:40:32.094Z,24.92
2024-05-09T09:42:37.816Z,24.99
2024-05-09T09:44:42.212Z,25.05
2024-05-09T09:46:47.397Z,25.11
2024-05-09T09:48:49.289Z,25.19
2024-05-09T09:50:52.281Z,25.26
2024-05-09T09:52:55.057Z,25.34
2024-05-09T09:54:58.556Z,25.42
2024-05-09T09:57:01.020Z,25.51
2024-05-09T09:59:04.306Z,25.61
2024-05-09T10:01:05.961Z,25.72
2024-05-09T10:03:07.583Z,25.82
2024-05-09T10:05:09.935Z,25.93
2024-05-09T10:07:13.372Z,26.03
2024-05-09T10:09:16.530Z,26.11
2024-05-09T10:11:22.183Z,26.18
2024-05-09T10:13:33.030Z,26.27
2024-05-09T10:15:51.424Z,26.36
2024-05-09T10:17:53.357Z,26.45
2024-05-09T10:20:14.412Z,26.54
2024-05-09T10:22:28.852Z,26.59
2024-05-09T10:24:53.469Z,26.67
2024-05-09T10:26:56.011Z,26.77
2024-05-09T10:28:58.753Z,26.84
2024-05-09T10:31:03.051Z,26.94
2024-05-09T10:33:10.937Z,27.01
2024-05-09T10:35:15.082Z,27.10
2024-05-09T10:37:17.545Z,27.19
2024-05-09T10:39:25.739Z,27.28
2024-05-09T10:41:27.646Z,27.37
2024-05-09T10:43:31.281Z,27.45
2024-05-09T10:45:35.473Z,27.53
2024-05-09T10:47:37.445Z,27.60
2024-05-09T10:49:39.283Z,27.66
2024-05-09T10:51:44.496Z,27.73
2024-05-09T10:53:48.849Z,27.81
2024-05-09T10:55:57.499Z,27.92
2024-05-09T10:57:59.133Z,27.97
2024-05-09T11:00:00.756Z,28.02
2024-05-09T11:02:10.178Z,28.07
2024-05-09T11:04:12.235Z,28.12
2024-05-09T11:06:15.384Z,28.18
2024-05-09T11:08:17.656Z,28.25
2024-05-09T11:10:27.331Z,28.30
2024-05-09T11:12:33.505Z,28.39
2024-05-09T11:14:35.368Z,28.43
2024-05-09T11:16:36.954Z,28.49
2024-05-09T11:18:39.407Z,28.52
2024-05-09T11:20:41.419Z,28.59
2024-05-09T11:22:45.207Z,28.83
2024-05-09T11:24:47.028Z,28.84
2024-05-09T11:26:48.761Z,28.84
2024-05-09T11:28:51.803Z,28.85
2024-05-09T11:31:05.447Z,28.84
2024-05-09T11:33:11.232Z,28.89
2024-05-09T11:35:12.982Z,28.95
2024-05-09T11:37:14.763Z,29.11
2024-05-09T11:39:16.613Z,29.15
2024-05-09T11:41:18.723Z,29.26
2024-05-09T11:43:21.048Z,29.41
2024-05-09T11:45:22.940Z,29.37
2024-05-09T11:47:24.774Z,29.39
2024-05-09T11:49:27.083Z,29.44
2024-05-09T11:51:28.896Z,29.47
2024-05-09T11:53:30.521Z,29.50
2024-05-09T11:55:36.262Z,29.53
2024-05-09T11:57:38.973Z,29.57
2024-05-09T11:59:41.020Z,29.63
2024-05-09T12:01:42.776Z,29.70
2024-05-09T12:03:44.647Z,29.75
2024-05-09T12:05:46.522Z,29.78
2024-05-09T12:07:48.234Z,29.81
2024-05-09T12:09:50.051Z,29.84
2024-05-09T12:11:52.877Z,29.88
2024-05-09T12:13:54.555Z,29.92
2024-05-09T12:15:56.280Z,29.94
2024-05-09T12:18:00.059Z,29.94
2024-05-09T12:20:07.060Z,29.96
2024-05-09T12:22:10.796Z,29.99
2024-05-09T12:24:14.483Z,29.98
2024-05-09T12:26:17.714Z,29.96
2024-05-09T12:28:20.162Z,29.96
2024-05-09T12:30:32.553Z,29.98
2024-05-09T12:32:39.165Z,29.98
2024-05-09T12:34:40.859Z,29.98
2024-05-09T12:36:43.109Z,29.99
2024-05-09T12:38:45.907Z,29.98
2024-05-09T12:40:47.557Z,29.96
2024-05-09T12:42:49.905Z,29.96
2024-05-09T12:44:51.509Z,29.97
2024-05-09T12:46:53.083Z,29.97
2024-05-09T12:48:55.065Z,29.96
2024-05-09T12:50:57.646Z,29.96
2024-05-09T12:52:59.358Z,29.95
2024-05-09T12:55:01.038Z,29.95
2024-05-09T12:57:02.712Z,29.96
2024-05-09T12:59:04.378Z,29.97
2024-05-09T13:01:06.113Z,29.98
2024-05-09T13:03:07.886Z,29.97
2024-05-09T13:05:10.502Z,29.94
2024-05-09T13:07:12.230Z,29.91
2024-05-09T13:09:13.861Z,29.91
2024-05-09T13:11:15.486Z,29.89
2024-05-09T13:13:17.293Z,29.87
2024-05-09T13:15:19.040Z,29.85
2024-05-09T13:17:20.918Z,29.82
2024-05-09T13:19:22.737Z,29.80
2024-05-09T13:21:24.413Z,29.78
2024-05-09T13:23:26.415Z,29.77
2024-05-09T13:25:28.041Z,29.77
2024-05-09T13:27:29.702Z,29.75
2024-05-09T13:29:31.344Z,29.74
2024-05-09T13:31:32.976Z,29.73
2024-05-09T13:33:34.694Z,29.71
2024-05-09T13:35:36.506Z,29.70
2024-05-09T13:37:38.334Z,29.70
2024-05-09T13:39:40.003Z,29.69
2024-05-09T13:41:41.594Z,29.68
2024-05-09T13:43:43.181Z,29.67
2024-05-09T13:45:44.944Z,29.69
2024-05-09T13:47:46.738Z,29.70
2024-05-09T13:49:48.480Z,29.68
2024-05-09T13:51:50.140Z,29.66
2024-05-09T13:53:51.752Z,29.63
2024-05-09T13:55:53.426Z,29.61
2024-05-09T13:57:55.420Z,29.56
2024-05-09T13:59:57.380Z,29.54
2024-05-09T14:01:59.066Z,29.51
2024-05-09T14:04:00.893Z,29.50
2024-05-09T14:06:02.622Z,29.49
2024-05-09T14:08:04.608Z,29.44
2024-05-09T14:10:11.399Z,29.41
2024-05-09T14:12:15.324Z,29.35
2024-05-09T14:14:16.968Z,29.30
2024-05-09T14:16:18.805Z,29.25
2024-05-09T14:18:20.808Z,29.21
2024-05-09T14:20:30.712Z,29.19
2024-05-09T14:22:35.488Z,29.15
2024-05-09T14:24:37.128Z,29.12
2024-05-09T14:26:38.726Z,29.10
2024-05-09T14:28:40.336Z,29.06
2024-05-09T14:30:42.480Z,29.02
2024-05-09T14:32:44.622Z,28.99
2024-05-09T14:34:46.477Z,28.94
2024-05-09T14:36:48.296Z,28.87
2024-05-09T14:38:49.910Z,28.82
2024-05-09T14:40:51.635Z,28.77
2024-05-09T14:42:53.500Z,28.74
2024-05-09T14:44:55.098Z,28.69
2024-05-09T14:46:56.913Z,28.62
2024-05-09T14:49:00.104Z,28.56
2024-05-09T14:51:01.723Z,28.54
2024-05-09T14:53:03.489Z,28.49
2024-05-09T14:55:05.590Z,28.44
2024-05-09T14:57:07.325Z,28.39
2024-05-09T14:59:09.222Z,28.32
2024-05-09T15:01:10.894Z,28.28
2024-05-09T15:03:12.760Z,28.22
2024-05-09T15:05:14.519Z,28.15
2024-05-09T15:07:16.277Z,28.07
2024-05-09T15:09:17.958Z,28.06
2024-05-09T15:11:19.624Z,28.03
2024-05-09T15:13:21.699Z,28.00
2024-05-09T15:15:23.369Z,27.93
2024-05-09T15:17:25.038Z,27.88
2024-05-09T15:19:26.956Z,27.83
2024-05-09T15:21:28.725Z,27.79
2024-05-09T15:23:30.286Z,27.77
2024-05-09T15:25:33.632Z,27.71
2024-05-09T15:27:35.372Z,27.65
2024-05-09T15:29:37.035Z,27.62
2024-05-09T15:31:38.694Z,27.57
2024-05-09T15:33:41.747Z,27.52
2024-05-09T15:35:44.825Z,27.60
2024-05-09T15:37:48.183Z,27.43
2024-05-09T15:39:50.020Z,27.47
2024-05-09T15:41:56.490Z,27.38
2024-05-09T15:43:58.077Z,27.32
2024-05-09T15:45:59.851Z,27.25
2024-05-09T15:48:02.826Z,27.22
2024-05-09T15:50:07.887Z,27.19
2024-05-09T15:52:11.568Z,27.18
2024-05-09T15:54:13.296Z,27.14
2024-05-09T15:56:14.888Z,27.09
2024-05-09T15:58:16.717Z,27.07
2024-05-09T16:00:25.252Z,27.04
2024-05-09T16:02:36.105Z,26.99
2024-05-09T16:04:37.952Z,26.99
2024-05-09T16:06:39.798Z,26.96
2024-05-09T16:08:41.594Z,26.90
2024-05-09T16:10:45.999Z,26.91
2024-05-09T16:12:50.906Z,26.90
2024-05-09T16:14:52.552Z,26.85
2024-05-09T16:16:54.234Z,26.78
2024-05-09T16:18:56.002Z,26.75
2024-05-09T16:21:00.290Z,26.74
2024-05-09T16:23:02.113Z,26.79
2024-05-09T16:25:04.135Z,26.73
2024-05-09T16:27:06.045Z,26.71
2024-05-09T16:29:08.497Z,26.64
2024-05-09T16:31:10.232Z,26.63
2024-05-09T16:33:23.872Z,26.67
2024-05-09T16:35:28.757Z,26.72
2024-05-09T16:37:33.393Z,26.73
2024-05-09T16:39:35.021Z,26.77
2024-05-09T16:41:37.016Z,26.87
2024-05-09T16:43:38.587Z,26.70
2024-05-09T16:45:41.903Z,26.60
2024-05-09T16:47:43.736Z,26.67
2024-05-09T16:49:45.470Z,26.58
2024-05-09T16:51:47.087Z,26.52
2024-05-09T16:53:48.771Z,26.46
2024-05-09T16:55:50.400Z,26.38
2024-05-09T16:57:52.088Z,26.34
2024-05-09T16:59:53.673Z,26.29
2024-05-09T17:01:55.341Z,26.44
2024-05-09T17:03:59.848Z,26.57
2024-05-09T17:06:03.644Z,26.40
2024-05-09T17:08:05.726Z,26.46
2024-05-09T17:10:10.440Z,26.35
2024-05-09T17:12:17.119Z,26.22
2024-05-09T17:14:18.816Z,26.13
2024-05-09T17:16:20.975Z,26.08
2024-05-09T17:18:22.748Z,26.04
2024-05-09T17:20:31.834Z,25.97
2024-05-09T17:22:36.619Z,25.94
2024-05-09T17:24:38.192Z,25.93
2024-05-09T17:26:39.954Z,25.88
2024-05-09T17:28:41.575Z,25.83
2024-05-09T17:30:43.343Z,25.83
2024-05-09T17:32:45.112Z,25.79
2024-05-09T17:34:46.798Z,25.81
2024-05-09T17:36:48.443Z,25.76
2024-05-09T17:38:50.327Z,25.69
2024-05-09T17:40:53.131Z,25.61
2024-05-09T17:42:54.908Z,25.56
2024-05-09T17:44:56.506Z,25.50
2024-05-09T17:46:58.154Z,25.46
2024-05-09T17:49:01.321Z,25.41
2024-05-09T17:51:03.318Z,25.39
2024-05-09T17:53:05.847Z,25.36
2024-05-09T17:55:07.607Z,25.31
2024-05-09T17:57:09.464Z,25.27
2024-05-09T17:59:11.578Z,25.21
2024-05-09T18:01:13.972Z,25.16
2024-05-09T18:03:15.728Z,25.11
2024-05-09T18:05:17.495Z,25.06
2024-05-09T18:07:19.723Z,25.02
2024-05-09T18:09:23.004Z,24.97
2024-05-09T18:11:25.633Z,24.92
2024-05-09T18:13:27.481Z,24.87
2024-05-09T18:15:29.056Z,24.82
2024-05-09T18:17:30.935Z,24.78
2024-05-09T18:19:35.300Z,24.73
2024-05-09T18:21:39.140Z,24.68
2024-05-09T18:23:40.718Z,24.66
2024-05-09T18:25:42.403Z,24.59
2024-05-09T18:27:44.047Z,24.55
2024-05-09T18:29:45.625Z,24.49
2024-05-09T18:31:47.298Z,24.45
2024-05-09T18:33:49.171Z,24.39
2024-05-09T18:35:50.965Z,24.36
2024-05-09T18:37:53.083Z,24.31
2024-05-09T18:39:54.817Z,24.24
2024-05-09T18:41:56.403Z,24.20
2024-05-09T18:43:58.359Z,24.14
2024-05-09T18:46:00.015Z,24.08
2024-05-09T18:48:01.795Z,24.02
2024-05-09T18:50:04.706Z,23.96
2024-05-09T18:52:07.571Z,23.90
2024-05-09T18:54:09.249Z,23.84
2024-05-09T18:56:10.831Z,23.80
2024-05-09T18:58:12.612Z,23.72
2024-05-09T19:00:26.645Z,23.68
2024-05-09T19:02:35.374Z,23.59
2024-05-09T19:04:37.192Z,23.53
2024-05-09T19:06:39.031Z,23.46
2024-05-09T19:08:40.639Z,23.42
2024-05-09T19:10:42.300Z,23.36
2024-05-09T19:12:44.009Z,23.30
2024-05-09T19:14:45.619Z,23.23
2024-05-09T19:16:47.315Z,23.17
2024-05-09T19:18:51.363Z,23.13
2024-05-09T19:20:53.234Z,23.07
2024-05-09T19:22:54.919Z,23.01
2024-05-09T19:24:56.656Z,22.95
2024-05-09T19:26:58.294Z,22.88
2024-05-09T19:28:59.866Z,22.82
2024-05-09T19:31:01.700Z,22.75
2024-05-09T19:33:03.551Z,22.70
2024-05-09T19:35:05.744Z,22.63
2024-05-09T19:37:07.499Z,22.57
2024-05-09T19:39:09.356Z,22.50
2024-05-09T19:41:11.033Z,22.43
2024-05-09T19:43:12.682Z,22.37
2024-05-09T19:45:14.290Z,22.30
2024-05-09T19:47:15.988Z,22.24
2024-05-09T19:49:17.728Z,22.19
2024-05-09T19:51:19.422Z,22.13
2024-05-09T19:53:21.040Z,22.09
2024-05-09T19:55:22.887Z,22.03
2024-05-09T19:57:24.625Z,21.96
2024-05-09T19:59:26.224Z,21.90
2024-05-09T20:01:27.836Z,21.85
2024-05-09T20:03:36.510Z,21.81
2024-05-09T20:05:38.850Z,21.75
2024-05-09T20:07:41.936Z,21.68
2024-05-09T20:09:43.539Z,21.64
2024-05-09T20:11:45.155Z,21.58
2024-05-09T20:13:46.820Z,21.51
2024-05-09T20:15:49.359Z,21.45
2024-05-09T20:17:51.577Z,21.40
2024-05-09T20:19:54.477Z,21.34
2024-05-09T20:21:56.203Z,21.29
2024-05-09T20:23:57.923Z,21.23
2024-05-09T20:25:59.566Z,21.17
2024-05-09T20:28:01.401Z,21.12
2024-05-09T20:30:06.514Z,21.08
2024-05-09T20:32:09.591Z,21.00
2024-05-09T20:34:11.291Z,20.96
2024-05-09T20:36:12.869Z,20.88
2024-05-09T20:38:14.678Z,20.82
2024-05-09T20:40:25.278Z,20.75
2024-05-09T20:42:32.872Z,20.68
2024-05-09T20:44:34.623Z,20.62
2024-05-09T20:46:36.165Z,20.58
2024-05-09T20:48:37.861Z,20.51
2024-05-09T20:50:41.982Z,20.47
2024-05-09T20:52:44.392Z,20.41
2024-05-09T20:54:46.100Z,20.35
2024-05-09T20:56:47.718Z,20.29
2024-05-09T20:58:49.419Z,20.23
2024-05-09T21:00:51.239Z,20.18
2024-05-09T21:02:53.111Z,20.14
2024-05-09T21:04:54.800Z,20.10
2024-05-09T21:06:56.534Z,20.03
2024-05-09T21:08:58.713Z,19.98
2024-05-09T21:11:00.361Z,19.93
2024-05-09T21:13:03.333Z,19.87
2024-05-09T21:15:05.956Z,19.83
2024-05-09T21:17:07.677Z,19.78
2024-05-09T21:19:09.423Z,19.71
2024-05-09T21:21:11.284Z,19.66
2024-05-09T21:23:12.926Z,19.61
2024-05-09T21:25:14.622Z,19.56
2024-05-09T21:27:16.248Z,19.51
2024-05-09T21:29:17.859Z,19.44
2024-05-09T21:31:19.577Z,19.39
2024-05-09T21:33:21.669Z,19.33
2024-05-09T21:35:23.412Z,19.29
2024-05-09T21:37:25.041Z,19.24
2024-05-09T21:39:26.695Z,19.20
2024-05-09T21:41:28.303Z,19.16
2024-05-09T21:43:31.478Z,19.10
2024-05-09T21:45:34.073Z,19.06
2024-05-09T21:47:36.123Z,19.00
2024-05-09T21:49:37.870Z,18.95
2024-05-09T21:51:39.554Z,18.92
2024-05-09T21:53:41.215Z,18.87
2024-05-09T21:55:43.101Z,18.82
2024-05-09T21:57:44.886Z,18.78
2024-05-09T21:59:47.444Z,18.73
2024-05-09T22:01:49.146Z,18.68
2024-05-09T22:03:51.045Z,18.64
2024-05-09T22:05:52.708Z,18.59
2024-05-09T22:07:54.310Z,18.55
2024-05-09T22:09:55.915Z,18.51
2024-05-09T22:11:58.047Z,18.46
2024-05-09T22:13:59.724Z,18.42
2024-05-09T22:16:03.782Z,18.37
2024-05-09T22:18:06.237Z,18.33
2024-05-09T22:20:17.863Z,18.30
2024-05-09T22:22:23.611Z,18.25
2024-05-09T22:24:28.020Z,18.22
2024-05-09T22:26:29.619Z,18.18
2024-05-09T22:28:31.723Z,18.14
2024-05-09T22:30:37.479Z,18.12
2024-05-09T22:32:41.330Z,18.06
2024-05-09T22:34:43.016Z,18.03
2024-05-09T22:36:44.652Z,17.99
2024-05-09T22:38:46.286Z,17.96
2024-05-09T22:40:49.803Z,17.93
2024-05-09T22:42:51.848Z,17.90
2024-05-09T22:44:53.472Z,17.86
2024-05-09T22:46:55.136Z,17.83
2024-05-09T22:48:56.940Z,17.81
2024-05-09T22:50:58.565Z,17.77
2024-05-09T22:53:00.216Z,17.73
2024-05-09T22:55:01.820Z,17.71
2024-05-09T22:57:03.749Z,17.67
2024-05-09T22:59:06.638Z,17.64
2024-05-09T23:01:14.741Z,17.61
2024-05-09T23:03:16.643Z,17.57
2024-05-09T23:05:18.444Z,17.54
2024-05-09T23:07:20.106Z,17.52
2024-05-09T23:09:21.808Z,17.49
2024-05-09T23:11:23.567Z,17.47
2024-05-09T23:13:25.572Z,17.43
2024-05-09T23:15:27.426Z,17.40
2024-05-09T23:17:29.076Z,17.36
2024-05-09T23:19:30.765Z,17.33
2024-05-09T23:21:32.411Z,17.30
2024-05-09T23:23:34.207Z,17.26
2024-05-09T23:25:36.742Z,17.26
2024-05-09T23:27:39.128Z,17.22
2024-05-09T23:29:40.728Z,17.20
2024-05-09T23:31:42.382Z,17.17
2024-05-09T23:33:47.197Z,17.14
2024-05-09T23:35:48.946Z,17.12
2024-05-09T23:37:50.545Z,17.08
2024-05-09T23:39:52.528Z,17.05
2024-05-09T23:41:54.081Z,17.03
2024-05-09T23:43:55.657Z,16.99
2024-05-09T23:45:57.310Z,16.99
2024-05-09T23:47:58.969Z,16.95
2024-05-09T23:50:00.773Z,16.92
2024-05-09T23:52:02.420Z,16.90
2024-05-09T23:54:04.118Z,16.88
2024-05-09T23:56:06.204Z,16.84
2024-05-09T23:58:08.333Z,16.82
